Cleveland, Georgia
Current Conditions -  °F | °C
As of 3:53 AM on Wednesday 22 Oct 2014 (Local Time) from KGVL Reporting Station
Clear Clear  
Wind Chill: 51°   Ceiling: Unl
Heat Index: 51°   Visibility: 10mi
Dew Point: 40°   Wind: 10mph
Humidity: 66%   Direction: 310°NW
Pressure: 30.03"   Gusts: NA
Location:  34.6°N, 83.76°W
Report Text: KGVL 220753Z AUTO 31009KT 10SM CLR 11/04 A3003 RMK AO2 SLP161 T01060044
Loading
Personal Weather Stations






























Interactive Weather Map
Tropical Storm Tracking
New forecast layout! Learn more

10-Day Weather Forecast

Advertisements
Track Severe Weather on mobile